createdAt,value
2022-10-01T00:04:08.786Z,7.14
2022-10-01T00:09:10.495Z,7.10
2022-10-01T00:14:12.176Z,7.13
2022-10-01T00:19:15.102Z,7.32
2022-10-01T00:24:16.883Z,7.28
2022-10-01T00:29:18.556Z,7.31
2022-10-01T00:34:20.265Z,7.04
2022-10-01T00:39:22.178Z,7.07
2022-10-01T00:44:28.132Z,7.05
2022-10-01T00:49:34.312Z,7.12
2022-10-01T00:54:51.169Z,7.02
2022-10-01T00:59:56.922Z,6.88
2022-10-01T01:04:59.307Z,6.92
2022-10-01T01:10:02.045Z,6.80
2022-10-01T01:15:04.837Z,6.93
2022-10-01T01:20:28.864Z,6.89
2022-10-01T01:25:40.157Z,6.73
2022-10-01T01:30:43.412Z,6.76
2022-10-01T01:35:52.210Z,6.62
2022-10-01T01:41:00.744Z,6.50
2022-10-01T01:46:06.195Z,6.70
2022-10-01T01:51:33.022Z,6.50
2022-10-01T01:56:35.821Z,6.44
2022-10-01T02:01:39.651Z,6.49
2022-10-01T02:07:05.494Z,6.59
2022-10-01T02:12:31.842Z,6.54
2022-10-01T02:18:07.014Z,6.51
2022-10-01T02:23:15.069Z,6.53
2022-10-01T02:28:21.224Z,6.25
2022-10-01T02:33:31.061Z,6.30
2022-10-01T02:38:37.891Z,6.30
2022-10-01T02:43:48.430Z,6.32
2022-10-01T02:48:51.397Z,6.17
2022-10-01T02:54:01.391Z,6.30
2022-10-01T02:59:03.132Z,6.04
2022-10-01T03:04:04.809Z,6.24
2022-10-01T03:09:08.810Z,6.25
2022-10-01T03:14:11.217Z,6.02
2022-10-01T03:19:12.957Z,5.99
2022-10-01T03:24:14.811Z,5.87
2022-10-01T03:29:16.660Z,5.98
2022-10-01T03:34:18.784Z,6.07
2022-10-01T03:39:20.563Z,6.05
2022-10-01T03:44:22.273Z,5.95
2022-10-01T03:49:23.979Z,5.86
2022-10-01T03:54:26.377Z,5.80
2022-10-01T03:59:28.185Z,5.86
2022-10-01T04:04:29.851Z,6.12
2022-10-01T04:09:31.534Z,6.07
2022-10-01T04:14:33.232Z,6.07
2022-10-01T04:19:34.975Z,6.11
2022-10-01T04:24:36.651Z,6.11
2022-10-01T04:29:40.397Z,5.99
2022-10-01T04:34:53.931Z,6.20
2022-10-01T04:39:55.587Z,6.03
2022-10-01T04:44:57.429Z,6.05
2022-10-01T04:49:59.127Z,6.13
2022-10-01T04:55:01.282Z,6.15
2022-10-01T05:00:05.335Z,6.38
2022-10-01T05:05:07.885Z,6.62
2022-10-01T05:10:12.646Z,6.85
2022-10-01T05:15:16.209Z,6.99
2022-10-01T05:20:23.724Z,7.21
2022-10-01T05:25:25.441Z,7.26
2022-10-01T05:30:27.195Z,7.46
2022-10-01T05:35:29.443Z,7.63
2022-10-01T05:40:31.180Z,7.79
2022-10-01T05:45:33.670Z,8.20
2022-10-01T05:50:40.267Z,8.54
2022-10-01T05:55:41.990Z,8.56
2022-10-01T06:00:43.955Z,8.76
2022-10-01T06:05:46.160Z,8.77
2022-10-01T06:10:48.380Z,9.00
2022-10-01T06:15:53.181Z,9.13
2022-10-01T06:20:54.871Z,9.33
2022-10-01T06:25:59.912Z,9.56
2022-10-01T06:31:02.543Z,9.69
2022-10-01T06:36:04.983Z,9.91
2022-10-01T06:41:06.719Z,10.13
2022-10-01T06:46:08.413Z,10.48
2022-10-01T06:51:10.198Z,10.84
2022-10-01T06:56:11.849Z,10.78
2022-10-01T07:01:13.545Z,10.99
2022-10-01T07:06:15.283Z,11.23
2022-10-01T07:11:16.946Z,10.88
2022-10-01T07:16:18.629Z,11.03
2022-10-01T07:21:20.309Z,11.10
2022-10-01T07:26:21.951Z,11.20
2022-10-01T07:31:24.499Z,11.58
2022-10-01T07:36:26.514Z,11.58
2022-10-01T07:41:28.268Z,11.49
2022-10-01T07:46:34.001Z,11.70
2022-10-01T07:51:39.005Z,12.09
2022-10-01T07:56:41.727Z,12.04
2022-10-01T08:01:43.459Z,12.79
2022-10-01T08:06:49.040Z,14.54
2022-10-01T08:11:50.789Z,14.53
2022-10-01T08:16:55.848Z,14.99
2022-10-01T08:21:57.567Z,14.21
2022-10-01T08:26:59.243Z,14.18
2022-10-01T08:32:01.117Z,13.98
2022-10-01T08:37:02.858Z,13.95
2022-10-01T08:42:27.149Z,13.78
2022-10-01T08:47:35.096Z,14.02
2022-10-01T08:52:57.228Z,14.08
2022-10-01T08:58:02.487Z,14.39
2022-10-01T09:03:07.123Z,14.39
2022-10-01T09:08:44.438Z,14.41
2022-10-01T09:14:04.208Z,14.06
2022-10-01T09:19:26.854Z,13.80
2022-10-01T09:24:44.941Z,13.86
2022-10-01T09:29:51.612Z,13.93
2022-10-01T09:34:54.499Z,13.99
2022-10-01T09:40:27.248Z,14.14
2022-10-01T09:45:29.314Z,14.01
2022-10-01T09:50:39.845Z,14.03
2022-10-01T09:55:44.930Z,14.06
2022-10-01T10:00:48.378Z,14.11
2022-10-01T10:05:50.878Z,14.31
2022-10-01T10:10:58.946Z,14.19
2022-10-01T10:16:15.623Z,14.20
2022-10-01T10:21:21.569Z,14.25
2022-10-01T10:26:32.855Z,14.04
2022-10-01T10:31:42.026Z,14.05
2022-10-01T10:36:45.764Z,13.72
2022-10-01T10:41:50.384Z,13.43
2022-10-01T10:46:53.992Z,13.24
2022-10-01T10:52:01.020Z,13.09
2022-10-01T10:57:21.198Z,12.69
2022-10-01T11:02:26.653Z,12.46
2022-10-01T11:07:29.927Z,12.22
2022-10-01T11:12:58.371Z,12.17
2022-10-01T11:18:10.656Z,11.89
2022-10-01T11:23:27.684Z,11.77
2022-10-01T11:28:56.669Z,11.75
2022-10-01T11:34:12.568Z,11.66
2022-10-01T11:39:17.864Z,11.61
2022-10-01T11:44:26.740Z,11.51
2022-10-01T11:49:42.415Z,11.35
2022-10-01T11:55:22.084Z,11.28
2022-10-01T12:00:27.250Z,11.20
2022-10-01T12:05:32.283Z,11.11
2022-10-01T12:11:21.606Z,11.05
2022-10-01T12:16:29.570Z,11.06
2022-10-01T12:21:39.529Z,11.00
2022-10-01T12:27:02.806Z,11.08
2022-10-01T12:32:36.747Z,11.02
2022-10-01T12:38:19.919Z,11.04
2022-10-01T12:43:36.596Z,11.10
2022-10-01T12:48:54.868Z,11.20
2022-10-01T12:54:04.642Z,11.22
2022-10-01T12:59:12.901Z,11.27
2022-10-01T13:04:35.458Z,11.34
2022-10-01T13:09:53.392Z,11.37
2022-10-01T13:14:56.164Z,11.41
2022-10-01T13:20:13.904Z,11.48
2022-10-01T13:25:30.552Z,11.48
2022-10-01T13:30:51.922Z,11.42
2022-10-01T13:36:02.368Z,11.32
2022-10-01T13:41:14.299Z,11.34
2022-10-01T13:46:16.064Z,11.39
2022-10-01T13:51:17.943Z,11.43
2022-10-01T13:56:36.207Z,11.62
2022-10-01T14:01:39.981Z,11.61
2022-10-01T14:06:58.905Z,11.78
2022-10-01T14:12:38.096Z,11.92
2022-10-01T14:17:41.751Z,12.04
2022-10-01T14:23:13.019Z,12.21
2022-10-01T14:28:31.838Z,12.63
2022-10-01T14:34:10.923Z,12.80
2022-10-01T14:39:16.939Z,12.63
2022-10-01T14:44:37.275Z,12.74
2022-10-01T14:49:39.081Z,12.75
2022-10-01T14:54:47.228Z,12.79
2022-10-01T14:59:49.120Z,13.06
2022-10-01T15:04:53.350Z,12.93
2022-10-01T15:10:05.629Z,12.85
2022-10-01T15:15:28.897Z,12.90
2022-10-01T15:20:30.967Z,12.82
2022-10-01T15:25:32.828Z,12.94
2022-10-01T15:30:36.142Z,13.04
2022-10-01T15:35:37.900Z,12.86
2022-10-01T15:40:42.765Z,13.22
2022-10-01T15:45:44.447Z,13.19
2022-10-01T15:50:59.395Z,13.17
2022-10-01T15:56:10.666Z,13.07
2022-10-01T16:01:20.119Z,12.88
2022-10-01T16:06:35.923Z,12.78
2022-10-01T16:11:56.673Z,12.62
2022-10-01T16:17:16.686Z,12.59
2022-10-01T16:22:33.524Z,12.51
2022-10-01T16:27:48.305Z,12.46
2022-10-01T16:32:50.228Z,12.47
2022-10-01T16:37:55.214Z,12.34
2022-10-01T16:42:59.549Z,12.37
2022-10-01T16:48:02.213Z,12.44
2022-10-01T16:53:04.434Z,12.39
2022-10-01T16:58:06.912Z,12.50
2022-10-01T17:03:15.688Z,12.32
2022-10-01T17:08:17.458Z,12.39
2022-10-01T17:13:19.360Z,12.45
2022-10-01T17:18:21.426Z,12.49
2022-10-01T17:23:23.249Z,12.49
2022-10-01T17:28:25.068Z,12.48
2022-10-01T17:33:28.737Z,12.49
2022-10-01T17:38:30.387Z,12.50
2022-10-01T17:43:32.143Z,12.69
2022-10-01T17:48:33.832Z,12.68
2022-10-01T17:53:42.108Z,12.69
2022-10-01T17:58:45.866Z,12.74
2022-10-01T18:03:52.187Z,12.86
2022-10-01T18:08:56.281Z,12.97
2022-10-01T18:13:58.692Z,13.08
2022-10-01T18:24:23.429Z,12.84
2022-10-01T18:29:27.549Z,12.81
2022-10-01T18:34:38.429Z,12.74
2022-10-01T18:39:44.680Z,12.65
2022-10-01T18:44:52.586Z,12.79
2022-10-01T18:49:57.849Z,12.90
2022-10-01T18:55:21.124Z,12.78
2022-10-01T19:00:23.509Z,13.00
2022-10-01T19:05:43.525Z,13.16
2022-10-01T19:11:08.725Z,13.25
2022-10-01T19:16:22.589Z,13.29
2022-10-01T19:21:37.298Z,13.23
2022-10-01T19:26:58.293Z,13.08
2022-10-01T19:32:03.867Z,13.06
2022-10-01T19:37:16.172Z,13.02
2022-10-01T19:42:24.214Z,12.93
2022-10-01T19:47:34.726Z,12.91
2022-10-01T19:52:40.014Z,12.75
2022-10-01T19:57:43.720Z,12.81
2022-10-01T20:02:54.675Z,12.73
2022-10-01T20:08:15.908Z,12.75
2022-10-01T20:13:51.707Z,12.65
2022-10-01T20:19:04.693Z,12.75
2022-10-01T20:24:29.181Z,12.72
2022-10-01T20:30:09.002Z,12.77
2022-10-01T20:35:35.380Z,12.79
2022-10-01T20:40:53.291Z,12.79
2022-10-01T20:45:55.521Z,12.70
2022-10-01T20:51:04.593Z,12.57
2022-10-01T20:56:20.927Z,12.66
2022-10-01T21:01:25.780Z,12.57
2022-10-01T21:06:42.257Z,12.57
2022-10-01T21:11:55.202Z,12.61
2022-10-01T21:17:30.228Z,12.52
2022-10-01T21:23:06.637Z,12.42
2022-10-01T21:28:15.564Z,12.42
2022-10-01T21:33:38.608Z,12.32
2022-10-01T21:38:49.020Z,12.45
2022-10-01T21:43:56.591Z,12.55
2022-10-01T21:49:03.735Z,12.65
2022-10-01T21:54:40.136Z,12.55
2022-10-01T21:59:59.836Z,12.43
2022-10-01T22:05:12.622Z,12.37
2022-10-01T22:10:16.908Z,12.37
2022-10-01T22:15:31.354Z,12.43
2022-10-01T22:20:37.550Z,12.49
2022-10-01T22:25:46.714Z,12.44
2022-10-01T22:30:51.481Z,12.45
2022-10-01T22:36:00.565Z,12.35
2022-10-01T22:41:28.429Z,12.13
2022-10-01T22:46:32.936Z,12.20
2022-10-01T22:51:49.845Z,12.22
2022-10-01T22:57:01.090Z,12.27
2022-10-01T23:02:28.776Z,12.20
2022-10-01T23:07:36.565Z,12.18
2022-10-01T23:13:07.513Z,12.02
2022-10-01T23:18:40.892Z,12.04
2022-10-01T23:23:56.503Z,12.06
2022-10-01T23:29:28.989Z,12.07
2022-10-01T23:34:33.369Z,12.09
2022-10-01T23:39:46.946Z,12.06
2022-10-01T23:45:18.637Z,12.08
2022-10-01T23:50:39.888Z,12.08
2022-10-01T23:56:23.905Z,12.18
